Time;durP1;ratioP1;P1;durP2;ratioP2;P2;SDS_P1;SDS_P2;PMS_P1;PMS_P2;Temp;Humidity;BMP_temperature;BMP_pressure;BME280_temperature;BME280_humidity;BME280_pressure;Samples;Min_cycle;Max_cycle;Signal;HPM_P1;HPM_P2
2022/11/26 00:03:43;;;;;;;16.58;7.95;;;;;;;3.96;100.00;102313.16;10414738;28;20053;-66
2022/11/26 00:08:45;;;;;;;;;;;;;;;3.85;100.00;102316.53;10415318;28;20111;-66
2022/11/26 00:13:48;;;;;;;12.23;7.28;;;;;;;3.78;100.00;102325.06;10415077;28;19925;-67
2022/11/26 00:18:50;;;;;;;20.88;7.97;;;;;;;3.72;100.00;102315.53;10414330;28;20064;-66
2022/11/26 00:23:54;;;;;;;24.30;8.23;;;;;;;3.67;100.00;102327.53;10411895;28;20112;-66
2022/11/26 00:28:59;;;;;;;24.35;8.45;;;;;;;3.65;100.00;102331.81;10413658;28;20310;-66
2022/11/26 00:34:01;;;;;;;19.95;8.43;;;;;;;3.50;100.00;102334.22;10413893;28;20129;-67
2022/11/26 00:39:06;;;;;;;28.97;9.13;;;;;;;3.32;100.00;102330.59;10413763;28;20084;-67
2022/11/26 00:44:18;;;;;;;30.02;9.27;;;;;;;3.40;100.00;102325.50;10413165;28;20481;-66
2022/11/26 00:49:22;;;;;;;19.63;8.00;;;;;;;3.37;100.00;102335.78;10413004;28;20579;-67
2022/11/26 00:54:24;;;;;;;18.60;7.85;;;;;;;3.26;100.00;102340.81;10410371;28;20437;-66
2022/11/26 00:59:28;;;;;;;18.15;8.25;;;;;;;3.25;100.00;102341.69;10413569;28;20057;-67
2022/11/26 01:04:30;;;;;;;29.05;9.05;;;;;;;3.27;100.00;102343.44;10413323;28;20133;-67
2022/11/26 01:09:32;;;;;;;15.67;7.77;;;;;;;3.57;100.00;102347.22;10413175;28;20119;-67
2022/11/26 01:14:35;;;;;;;25.17;8.60;;;;;;;3.46;100.00;102353.97;10413139;28;20583;-67
2022/11/26 01:19:36;;;;;;;21.88;7.95;;;;;;;3.52;100.00;102338.53;10413362;28;20090;-67
2022/11/26 01:24:38;;;;;;;21.10;8.90;;;;;;;3.46;100.00;102339.34;10410825;28;20095;-67
2022/11/26 01:29:42;;;;;;;23.57;9.27;;;;;;;3.32;100.00;102336.59;10413271;28;20108;-67
2022/11/26 01:34:44;;;;;;;30.20;7.57;;;;;;;3.46;100.00;102338.50;10413037;28;20373;-66
2022/11/26 01:39:47;;;;;;;15.87;7.83;;;;;;;3.45;100.00;102337.63;10413233;28;20515;-66
2022/11/26 01:44:50;;;;;;;23.10;8.32;;;;;;;3.24;100.00;102338.22;10412411;28;20087;-66
2022/11/26 01:50:59;;;;;;;17.13;7.72;;;;;;;3.17;100.00;102346.72;10412809;28;20115;-67
2022/11/26 01:56:06;;;;;;;19.00;7.70;;;;;;;3.12;100.00;102363.88;10419864;28;20117;-68
2022/11/26 02:01:11;;;;;;;18.77;8.13;;;;;;;3.11;100.00;102363.00;10419452;28;20159;-66
2022/11/26 02:06:19;;;;;;;18.52;8.20;;;;;;;3.15;100.00;102358.75;10419580;28;20588;-67
2022/11/26 02:11:25;;;;;;;25.38;8.52;;;;;;;3.19;100.00;102370.84;10419837;28;20066;-67
2022/11/26 02:17:08;;;;;;;17.73;8.02;;;;;;;3.34;100.00;102363.31;10419692;28;20061;-67
2022/11/26 02:22:34;;;;;;;18.25;7.15;;;;;;;3.47;100.00;102376.34;10416839;28;20521;-67
2022/11/26 02:28:35;;;;;;;20.77;7.80;;;;;;;3.48;100.00;102378.09;10419042;28;20087;-67
2022/11/26 02:33:46;;;;;;;16.63;6.70;;;;;;;3.50;100.00;102391.00;10419081;28;20065;-67
2022/11/26 02:38:50;;;;;;;21.90;7.57;;;;;;;3.45;100.00;102380.63;10418469;28;20064;-67
2022/11/26 02:43:52;;;;;;;24.23;7.28;;;;;;;3.35;100.00;102377.94;10418477;28;20344;-67
2022/11/26 02:48:55;;;;;;;26.53;8.27;;;;;;;3.33;100.00;102374.47;10417890;28;20135;-66
2022/11/26 02:53:57;;;;;;;21.42;7.90;;;;;;;3.21;100.00;102382.03;10415678;28;20304;-66
2022/11/26 02:58:59;;;;;;;28.30;8.38;;;;;;;3.09;100.00;102386.19;10417668;28;20141;-67
2022/11/26 03:04:09;;;;;;;22.30;7.30;;;;;;;3.05;100.00;102389.56;10417507;28;20140;-67
2022/11/26 03:09:11;;;;;;;12.80;6.90;;;;;;;3.08;100.00;102402.50;10417728;28;20076;-66
2022/11/26 03:14:13;;;;;;;13.30;6.67;;;;;;;3.07;100.00;102410.22;10417114;28;20119;-67
2022/11/26 03:19:17;;;;;;;15.40;6.63;;;;;;;3.08;100.00;102406.81;10416827;28;20363;-66
2022/11/26 03:24:18;;;;;;;30.92;8.40;;;;;;;3.03;100.00;102422.22;10414047;28;20049;-66
2022/11/26 03:29:22;;;;;;;16.23;6.70;;;;;;;3.14;100.00;102419.81;10417273;28;20112;-67
2022/11/26 03:34:25;;;;;;;22.88;6.97;;;;;;;3.14;100.00;102424.97;10416329;28;20049;-67
2022/11/26 03:39:28;;;;;;;19.55;6.85;;;;;;;3.04;100.00;102430.81;10415995;28;20119;-67
2022/11/26 03:44:30;;;;;;;15.52;7.40;;;;;;;3.07;100.00;102424.00;10415914;28;20120;-67
2022/11/26 03:49:33;;;;;;;26.08;7.20;;;;;;;3.27;100.00;102418.25;10415739;28;20060;-67
2022/11/26 03:54:35;;;;;;;13.63;7.22;;;;;;;3.19;100.00;102427.63;10412952;28;20472;-67
2022/11/26 03:59:37;;;;;;;18.90;6.20;;;;;;;3.21;100.00;102425.91;10415163;28;20156;-67
2022/11/26 04:04:40;;;;;;;20.98;6.25;;;;;;;3.34;100.00;102430.41;10415081;28;20067;-67
2022/11/26 04:09:42;;;;;;;18.63;6.72;;;;;;;3.26;100.00;102437.19;10414804;28;20167;-68
2022/11/26 04:14:44;;;;;;;24.57;7.13;;;;;;;3.19;100.00;102443.09;10414285;28;20062;-67
2022/11/26 04:19:47;;;;;;;18.80;7.15;;;;;;;3.19;100.00;102450.84;10414887;28;20786;-67
2022/11/26 04:24:49;;;;;;;28.60;6.57;;;;;;;3.15;100.00;102457.66;10411903;28;20508;-67
2022/11/26 04:29:51;;;;;;;16.58;6.18;;;;;;;3.18;100.00;102456.84;10414018;28;20053;-67
2022/11/26 04:34:54;;;;;;;15.35;6.53;;;;;;;3.18;100.00;102451.69;10414415;28;20120;-67
2022/11/26 04:39:57;;;;;;;14.77;5.68;;;;;;;3.08;100.00;102445.53;10413787;28;20473;-67
2022/11/26 04:44:59;;;;;;;17.95;6.00;;;;;;;3.07;100.00;102454.97;10413855;28;20080;-67
2022/11/26 04:50:03;;;;;;;18.37;6.40;;;;;;;3.01;100.00;102465.19;10413953;28;20167;-67
2022/11/26 04:55:06;;;;;;;17.13;5.72;;;;;;;3.02;100.00;102466.94;10411419;28;20358;-66
2022/11/26 05:00:10;;;;;;;;;;;;;;;2.97;100.00;102468.56;10413944;28;20095;-67
2022/11/26 05:05:13;;;;;;;17.08;5.07;;;;;;;3.07;100.00;102469.56;10413255;28;19960;-67
2022/11/26 05:10:15;;;;;;;14.95;6.82;;;;;;;3.04;100.00;102470.38;10413176;28;20056;-66
2022/11/26 05:15:17;;;;;;;17.40;6.20;;;;;;;2.97;100.00;102478.88;10412995;28;20126;-66
2022/11/26 05:20:20;;;;;;;32.08;7.10;;;;;;;2.98;100.00;102475.47;10413468;28;20092;-65
2022/11/26 05:25:21;;;;;;;16.27;6.53;;;;;;;2.95;100.00;102475.41;10412363;28;20167;-65
2022/11/26 05:30:24;;;;;;;23.07;6.77;;;;;;;2.91;100.00;102481.38;10421018;28;20054;-66
2022/11/26 05:35:27;;;;;;;16.08;6.43;;;;;;;2.85;100.00;102494.16;10421078;28;20095;-66
2022/11/26 05:40:29;;;;;;;24.38;8.25;;;;;;;2.79;100.00;102490.63;10420939;28;20126;-66
2022/11/26 05:45:31;;;;;;;18.47;7.13;;;;;;;2.74;100.00;102487.09;10420706;28;20122;-67
2022/11/26 05:50:34;;;;;;;28.55;7.38;;;;;;;2.80;100.00;102494.94;10419680;28;20464;-66
2022/11/26 05:55:35;;;;;;;15.40;6.90;;;;;;;2.81;100.00;102488.94;10419578;28;20056;-67
2022/11/26 06:00:38;;;;;;;20.80;7.23;;;;;;;2.77;100.00;102499.19;10420164;28;20095;-66
2022/11/26 06:05:41;;;;;;;26.33;6.65;;;;;;;2.66;100.00;102505.03;10421410;28;20077;-66
2022/11/26 06:10:44;;;;;;;17.05;6.90;;;;;;;2.74;100.00;102518.03;10420192;28;20053;-66
2022/11/26 06:15:45;;;;;;;28.20;8.35;;;;;;;2.71;100.00;102518.00;10418985;28;20112;-68
2022/11/26 06:20:50;;;;;;;20.70;8.13;;;;;;;2.66;100.00;102519.63;10416910;28;20066;-66
2022/11/26 06:25:51;;;;;;;13.55;8.05;;;;;;;2.54;100.00;102509.97;10419562;28;20557;-66
2022/11/26 06:30:54;;;;;;;16.67;8.10;;;;;;;2.55;100.00;102528.03;10418640;28;20065;-66
2022/11/26 06:36:00;;;;;;;29.38;8.90;;;;;;;2.52;100.00;102522.81;10418667;28;20064;-67
2022/11/26 06:41:06;;;;;;;25.08;8.13;;;;;;;2.50;100.00;102532.22;10418269;28;20080;-66
2022/11/26 06:46:11;;;;;;;21.05;7.85;;;;;;;2.56;100.00;102534.94;10418512;28;20480;-66
2022/11/26 06:51:19;;;;;;;14.57;8.35;;;;;;;2.53;100.00;102540.03;10415824;28;20109;-67
2022/11/26 06:56:21;;;;;;;21.63;8.43;;;;;;;2.52;100.00;102535.72;10418056;28;20066;-67
2022/11/26 07:01:26;;;;;;;19.85;9.25;;;;;;;2.50;100.00;102537.38;10417289;28;20097;-67
2022/11/26 07:06:32;;;;;;;17.05;7.75;;;;;;;2.55;100.00;102548.66;10416179;28;20082;-67
2022/11/26 07:11:35;;;;;;;27.90;9.02;;;;;;;2.51;100.00;102546.88;10415939;28;20551;-66
2022/11/26 07:16:37;;;;;;;21.23;8.68;;;;;;;2.53;100.00;102560.63;10415718;28;20065;-67
2022/11/26 07:21:40;;;;;;;20.70;9.65;;;;;;;2.44;100.00;102569.06;10413166;28;20076;-66
2022/11/26 07:26:42;;;;;;;30.27;9.05;;;;;;;2.54;100.00;102567.53;10414899;28;20088;-66
2022/11/26 07:31:44;;;;;;;26.40;8.48;;;;;;;2.61;100.00;102573.69;10415590;28;20108;-67
2022/11/26 07:36:47;;;;;;;17.88;7.18;;;;;;;2.63;100.00;102566.00;10414823;28;20455;-67
2022/11/26 07:41:48;;;;;;;19.23;8.38;;;;;;;2.66;100.00;102581.47;10414340;28;20049;-68
2022/11/26 07:46:50;;;;;;;23.23;8.53;;;;;;;2.71;100.00;102572.16;10414415;28;20136;-67
2022/11/26 07:51:53;;;;;;;20.17;7.93;;;;;;;2.79;100.00;102578.31;10410996;28;20476;-67
2022/11/26 07:56:55;;;;;;;16.38;8.15;;;;;;;2.86;100.00;102576.69;10414207;28;20341;-69
2022/11/26 08:01:56;;;;;;;26.07;8.93;;;;;;;2.91;100.00;102576.78;10413586;28;20084;-70
2022/11/26 08:06:59;;;;;;;30.45;9.23;;;;;;;2.99;100.00;102582.06;10413308;28;20103;-66
2022/11/26 08:12:01;;;;;;;18.98;7.82;;;;;;;3.12;100.00;102583.16;10413332;28;20055;-66
2022/11/26 08:17:04;;;;;;;28.70;7.85;;;;;;;3.26;100.00;102579.09;10413502;28;20504;-66
2022/11/26 08:22:07;;;;;;;17.58;7.25;;;;;;;3.39;100.00;102584.47;10410416;28;20125;-66
2022/11/26 08:27:10;;;;;;;20.35;8.10;;;;;;;3.50;100.00;102588.09;10413075;28;20053;-67
2022/11/26 08:32:12;;;;;;;19.67;7.78;;;;;;;3.60;100.00;102592.50;10410670;28;20443;-70
2022/11/26 08:37:15;;;;;;;10.45;6.55;;;;;;;3.71;100.00;102596.97;10412747;28;20518;-68
2022/11/26 08:42:18;;;;;;;25.23;6.65;;;;;;;3.81;100.00;102597.97;10412058;28;20061;-66
2022/11/26 08:47:19;;;;;;;22.88;7.35;;;;;;;3.93;100.00;102599.88;10411995;28;20049;-67
2022/11/26 08:52:22;;;;;;;32.75;8.45;;;;;;;4.03;100.00;102593.97;10409243;28;20059;-66
2022/11/26 08:57:24;;;;;;;15.07;5.90;;;;;;;4.11;100.00;102594.09;10411544;28;20393;-68
2022/11/26 09:02:26;;;;;;;13.43;6.25;;;;;;;4.21;100.00;102598.50;10411238;28;20049;-68
2022/11/26 09:07:29;;;;;;;25.25;7.38;;;;;;;4.33;100.00;102605.56;10409557;28;20052;-67
2022/11/26 09:12:31;;;;;;;26.10;8.02;;;;;;;4.40;100.00;102613.38;10411086;28;20073;-67
2022/11/26 09:17:32;;;;;;;17.83;8.47;;;;;;;4.55;100.00;102623.06;10411100;28;20050;-67
2022/11/26 09:22:35;;;;;;;33.50;9.35;;;;;;;4.55;100.00;102603.22;10408287;28;20758;-68
2022/11/26 09:27:37;;;;;;;29.15;7.57;;;;;;;4.63;100.00;102609.34;10409598;28;20536;-66
2022/11/26 09:32:39;;;;;;;25.70;7.97;;;;;;;4.75;100.00;102610.31;10408847;28;20571;-66
2022/11/26 09:37:42;;;;;;;30.65;8.50;;;;;;;4.89;100.00;102618.22;10404912;28;20544;-67
2022/11/26 09:43:04;;;;;;;34.95;8.13;;;;;;;5.07;100.00;102624.44;10410887;28;20076;-67
2022/11/26 09:48:15;;;;;;;22.83;5.93;;;;;;;5.15;100.00;102625.38;10410615;28;20083;-66
2022/11/26 09:53:25;;;;;;;31.83;8.87;;;;;;;5.27;100.00;102609.09;10407794;28;20046;-67
2022/11/26 09:58:38;;;;;;;27.05;8.45;;;;;;;5.35;100.00;102606.56;10410286;28;20110;-67
2022/11/26 10:03:41;;;;;;;22.33;7.63;;;;;;;5.44;100.00;102604.03;10410275;28;20057;-67
2022/11/26 10:09:10;;;;;;;32.05;7.93;;;;;;;5.52;100.00;102610.16;10409959;28;20049;-66
2022/11/26 10:14:32;;;;;;;20.98;7.28;;;;;;;5.73;100.00;102618.03;10414609;28;20049;-66
2022/11/26 10:19:46;;;;;;;38.95;8.35;;;;;;;5.85;100.00;102623.31;10417648;28;20053;-66
2022/11/26 10:24:50;;;;;;;24.95;7.72;;;;;;;5.83;100.00;102614.66;10415309;28;20075;-68
2022/11/26 10:29:59;;;;;;;37.25;8.43;;;;;;;6.18;100.00;102614.03;10417564;28;20454;-66
2022/11/26 10:35:01;;;;;;;35.47;9.77;;;;;;;7.19;100.00;102615.97;10416868;28;20060;-66
2022/11/26 10:40:20;;;;;;;31.45;9.77;;;;;;;7.60;100.00;102597.78;10417113;28;20058;-65
2022/11/26 10:45:25;;;;;;;25.88;6.38;;;;;;;7.42;100.00;102596.06;10416643;28;20635;-68
2022/11/26 10:50:27;;;;;;;25.42;8.98;;;;;;;7.28;100.00;102586.56;10416985;28;20076;-65
2022/11/26 10:55:34;;;;;;;34.60;10.10;;;;;;;7.61;100.00;102589.13;10414681;28;20154;-65
2022/11/26 11:00:41;;;;;;;43.72;9.85;;;;;;;7.87;100.00;102585.56;10417649;28;20111;-64
2022/11/26 11:05:45;;;;;;;22.88;7.30;;;;;;;8.14;100.00;102588.94;10417279;28;20049;-64
2022/11/26 11:10:58;;;;;;;23.40;8.10;;;;;;;9.05;100.00;102580.63;10416363;28;20095;-64
2022/11/26 11:16:02;;;;;;;20.17;6.57;;;;;;;8.80;100.00;102578.22;10415699;28;20102;-76
2022/11/26 11:21:06;;;;;;;12.43;5.45;;;;;;;8.80;100.00;102583.44;10413160;28;20339;-72
2022/11/26 11:26:19;;;;;;;21.30;5.78;;;;;;;9.00;100.00;102573.72;10415326;28;20069;-73
2022/11/26 11:31:23;;;;;;;15.32;5.78;;;;;;;9.49;100.00;102574.19;10415026;28;20045;-72
2022/11/26 11:36:27;;;;;;;12.13;5.10;;;;;;;9.11;100.00;102575.38;10416540;28;20056;-75
2022/11/26 11:41:38;;;;;;;24.65;5.57;;;;;;;10.24;100.00;102577.66;10415987;28;20042;-72
2022/11/26 11:47:19;;;;;;;14.55;4.95;;;;;;;9.76;100.00;102571.28;10415890;28;20045;-73
2022/11/26 11:52:39;;;;;;;17.40;4.60;;;;;;;10.01;100.00;102576.19;10407497;28;20050;-64
2022/11/26 11:58:04;;;;;;;14.68;5.30;;;;;;;9.66;100.00;102560.94;10415626;28;20054;-64
2022/11/26 12:04:00;;;;;;;15.13;4.90;;;;;;;9.67;100.00;102564.41;10414007;28;20071;-66
2022/11/26 12:09:17;;;;;;;10.80;4.35;;;;;;;9.58;100.00;102554.09;10372519;28;20053;-64
2022/11/26 12:14:30;;;;;;;14.32;4.50;;;;;;;9.04;100.00;102556.34;10372169;28;20108;-64
2022/11/26 12:19:42;;;;;;;18.85;4.97;;;;;;;8.67;100.00;102551.41;10373517;28;20437;-64
2022/11/26 12:24:50;;;;;;;18.55;5.18;;;;;;;8.36;100.00;102550.69;10370710;28;20446;-64
2022/11/26 12:30:00;;;;;;;21.25;5.53;;;;;;;8.34;100.00;102556.78;10376419;28;20099;-63
2022/11/26 12:35:12;;;;;;;16.90;5.43;;;;;;;8.36;100.00;102560.25;10413880;28;20049;-65
2022/11/26 12:40:29;;;;;;;13.02;5.10;;;;;;;8.41;100.00;102576.69;10414204;28;20096;-67
2022/11/26 12:45:48;;;;;;;15.02;4.30;;;;;;;8.52;100.00;102565.38;10414119;28;20123;-64
2022/11/26 12:50:56;;;;;;;17.42;4.18;;;;;;;8.56;100.00;102561.91;10412007;28;20107;-65
2022/11/26 12:56:12;;;;;;;9.63;4.07;;;;;;;8.55;100.00;102557.56;10414134;28;20045;-65
2022/11/26 13:01:15;;;;;;;14.60;4.90;;;;;;;8.54;100.00;102566.22;10414403;28;20104;-65
2022/11/26 13:06:43;;;;;;;15.95;4.50;;;;;;;8.60;100.00;102561.00;10413829;28;20107;-65
2022/11/26 13:11:56;;;;;;;12.10;4.45;;;;;;;8.59;100.00;102547.13;10413798;28;20049;-65
2022/11/26 13:17:11;;;;;;;13.20;4.07;;;;;;;8.69;100.00;102537.50;10412485;28;20049;-64
2022/11/26 13:22:58;;;;;;;15.57;4.32;;;;;;;9.04;100.00;102525.09;10399873;28;20112;-65
2022/11/26 13:28:16;;;;;;;16.80;3.97;;;;;;;9.79;100.00;102519.09;10365716;28;20049;-65
2022/11/26 13:34:04;;;;;;;12.80;3.22;;;;;;;9.99;100.00;102505.78;10397128;28;20050;-64
2022/11/26 13:39:49;;;;;;;14.82;4.22;;;;;;;10.04;100.00;102511.84;10412632;28;20131;-66
2022/11/26 13:45:32;;;;;;;15.85;3.55;;;;;;;10.45;100.00;102505.19;10410013;28;20053;-67
2022/11/26 13:50:45;;;;;;;14.27;3.33;;;;;;;10.03;100.00;102497.03;10419197;28;20045;-65
2022/11/26 13:55:52;;;;;;;16.65;3.83;;;;;;;9.48;100.00;102493.41;10419234;28;20045;-65
2022/11/26 14:00:53;;;;;;;9.88;3.10;;;;;;;9.39;100.00;102490.03;10419747;28;20107;-65
2022/11/26 14:06:09;;;;;;;12.27;3.97;;;;;;;9.45;100.00;102493.44;10419089;28;20064;-66
2022/11/26 14:11:12;;;;;;;17.45;3.72;;;;;;;9.44;100.00;102492.56;10418510;28;20049;-65
2022/11/26 14:16:15;;;;;;;9.60;3.17;;;;;;;9.61;100.00;102489.75;10418179;28;20472;-66
2022/11/26 14:21:20;;;;;;;15.65;3.35;;;;;;;9.65;100.00;102490.59;10415731;28;20408;-63
2022/11/26 14:26:29;;;;;;;11.23;3.28;;;;;;;9.65;100.00;102481.00;10417290;28;20479;-65
2022/11/26 14:31:30;;;;;;;14.13;3.92;;;;;;;9.61;100.00;102478.50;10414696;28;20113;-65
2022/11/26 14:36:34;;;;;;;9.82;3.10;;;;;;;9.49;100.00;102476.88;10416587;28;20050;-66
2022/11/26 14:41:52;;;;;;;12.98;3.20;;;;;;;9.41;100.00;102482.16;10417285;28;20459;-66
2022/11/26 14:46:58;;;;;;;15.98;3.90;;;;;;;9.35;100.00;102471.81;10416318;28;20088;-64
2022/11/26 14:52:04;;;;;;;11.38;3.60;;;;;;;9.21;100.00;102472.81;10414608;28;20083;-67
2022/11/26 14:57:13;;;;;;;21.98;4.20;;;;;;;9.15;100.00;102480.72;10416463;28;20049;-65
2022/11/26 15:02:22;;;;;;;15.25;3.75;;;;;;;9.02;100.00;102479.97;10416701;28;20065;-65
2022/11/26 15:07:27;;;;;;;9.30;3.28;;;;;;;8.96;100.00;102486.09;10416156;28;20486;-65
2022/11/26 15:12:30;;;;;;;14.00;3.40;;;;;;;8.82;100.00;102493.16;10416023;28;20057;-65
2022/11/26 15:17:34;;;;;;;20.45;3.83;;;;;;;8.70;100.00;102479.38;10415639;28;20215;-65
2022/11/26 15:22:43;;;;;;;11.10;3.20;;;;;;;8.53;100.00;102470.81;10413357;28;20056;-65
2022/11/26 15:27:54;;;;;;;7.18;3.00;;;;;;;8.42;100.00;102479.53;10415553;28;20041;-65
2022/11/26 15:33:03;;;;;;;10.80;3.22;;;;;;;8.21;100.00;102486.63;10413452;28;20053;-64
2022/11/26 15:38:13;;;;;;;13.05;3.45;;;;;;;8.10;100.00;102486.69;10415205;28;20076;-66
2022/11/26 15:43:25;;;;;;;13.95;2.80;;;;;;;7.99;100.00;102489.34;10414537;28;20099;-65
2022/11/26 15:48:36;;;;;;;7.78;2.80;;;;;;;7.80;100.00;102485.13;10414837;28;20535;-65
2022/11/26 15:53:47;;;;;;;14.25;3.50;;;;;;;7.72;100.00;102483.41;10411864;28;20520;-65
2022/11/26 15:58:55;;;;;;;13.65;3.40;;;;;;;7.68;100.00;102494.69;10413727;28;20099;-65
2022/11/26 16:03:58;;;;;;;13.23;3.33;;;;;;;7.53;100.00;102492.13;10413950;28;20057;-66
2022/11/26 16:09:23;;;;;;;17.77;3.42;;;;;;;7.49;100.00;102490.41;10413298;28;20136;-67
2022/11/26 16:14:34;;;;;;;10.75;3.33;;;;;;;7.44;100.00;102499.09;10413435;28;20071;-67
2022/11/26 16:19:46;;;;;;;8.10;3.08;;;;;;;7.32;100.00;102483.50;10413031;28;20449;-67
2022/11/26 16:25:03;;;;;;;15.52;3.42;;;;;;;7.22;100.00;102487.88;10410767;28;20056;-65
2022/11/26 16:30:14;;;;;;;10.25;3.28;;;;;;;7.19;100.00;102500.88;10410769;28;20515;-71
2022/11/26 16:35:16;;;;;;;13.48;3.78;;;;;;;7.24;100.00;102495.66;10410592;28;20084;-65
2022/11/26 16:40:20;;;;;;;15.95;3.97;;;;;;;7.16;100.00;102499.16;10411420;28;20111;-64
2022/11/26 16:45:22;;;;;;;12.68;3.83;;;;;;;7.07;100.00;102496.56;10410640;28;20460;-66
2022/11/26 16:50:27;;;;;;;17.92;4.18;;;;;;;7.09;100.00;102492.25;10410535;28;20119;-66
2022/11/26 16:55:30;;;;;;;16.92;4.40;;;;;;;7.11;100.00;102489.63;10408111;28;20519;-71
2022/11/26 17:00:32;;;;;;;11.32;4.03;;;;;;;7.10;100.00;102491.34;10410509;28;20095;-72
2022/11/26 17:05:33;;;;;;;10.65;3.55;;;;;;;7.03;100.00;102484.44;10410555;28;20056;-72
2022/11/26 17:10:37;;;;;;;14.48;3.92;;;;;;;7.00;100.00;102484.44;10410081;28;20054;-69
2022/11/26 17:15:39;;;;;;;16.38;4.15;;;;;;;6.98;100.00;102474.06;10410007;28;20267;-71
2022/11/26 17:20:40;;;;;;;10.90;3.30;;;;;;;6.88;100.00;102478.38;10410666;28;20422;-70
2022/11/26 17:25:48;;;;;;;10.80;3.78;;;;;;;6.82;100.00;102475.81;10416490;28;20134;-69
2022/11/26 17:30:50;;;;;;;12.05;4.50;;;;;;;6.82;100.00;102468.88;10418058;28;20045;-71
2022/11/26 17:35:52;;;;;;;15.65;4.18;;;;;;;6.82;100.00;102453.31;10418101;28;20366;-70
2022/11/26 17:40:55;;;;;;;6.85;3.25;;;;;;;6.77;100.00;102464.59;10417773;28;20053;-69
2022/11/26 17:45:58;;;;;;;11.05;4.15;;;;;;;6.74;100.00;102454.19;10417743;28;20115;-71
2022/11/26 17:51:00;;;;;;;13.95;4.22;;;;;;;6.66;100.00;102443.81;10414513;28;20071;-70
2022/11/26 17:56:03;;;;;;;12.90;4.90;;;;;;;6.64;100.00;102443.78;10416816;28;20053;-69
2022/11/26 18:01:05;;;;;;;13.15;4.55;;;;;;;6.60;100.00;102439.47;10416699;28;20497;-71
2022/11/26 18:06:08;;;;;;;14.82;4.35;;;;;;;6.55;100.00;102449.00;10417366;28;20118;-69
2022/11/26 18:11:15;;;;;;;11.95;4.65;;;;;;;6.57;100.00;102427.38;10417083;28;20139;-70
2022/11/26 18:16:17;;;;;;;10.25;4.38;;;;;;;6.51;100.00;102426.53;10416622;28;20524;-71
2022/11/26 18:21:18;;;;;;;10.23;4.80;;;;;;;6.47;100.00;102420.47;10414120;28;20095;-69
2022/11/26 18:26:26;;;;;;;12.95;4.97;;;;;;;6.42;100.00;102423.06;10416392;28;20116;-70
2022/11/26 18:31:30;;;;;;;17.58;4.72;;;;;;;6.44;100.00;102426.50;10416027;28;20060;-73
2022/11/26 18:36:32;;;;;;;8.40;3.72;;;;;;;6.39;100.00;102437.72;10415097;28;20080;-70
2022/11/26 18:41:35;;;;;;;12.82;3.88;;;;;;;6.40;100.00;102419.59;10415666;28;20053;-65
2022/11/26 18:46:37;;;;;;;11.88;4.75;;;;;;;6.29;100.00;102416.13;10415079;28;20118;-65
2022/11/26 18:51:38;;;;;;;15.63;5.05;;;;;;;6.26;100.00;102411.81;10413021;28;20571;-65
2022/11/26 18:56:42;;;;;;;9.85;4.90;;;;;;;6.23;100.00;102405.75;10414832;28;20501;-64
2022/11/26 19:01:46;;;;;;;16.98;5.03;;;;;;;6.09;100.00;102398.81;10414608;28;20131;-67
2022/11/26 19:06:48;;;;;;;11.57;4.30;;;;;;;6.06;100.00;102406.59;10414753;28;20071;-65
2022/11/26 19:11:53;;;;;;;12.38;3.60;;;;;;;6.09;100.00;102409.19;10414572;28;20076;-65
2022/11/26 19:16:55;;;;;;;14.85;4.57;;;;;;;6.13;100.00;102404.88;10414298;28;20136;-67
2022/11/26 19:21:57;;;;;;;26.05;5.60;;;;;;;6.08;100.00;102397.09;10411497;28;20045;-65
2022/11/26 19:27:01;;;;;;;10.07;4.20;;;;;;;5.99;100.00;102395.31;10413891;28;20049;-66
2022/11/26 19:32:03;;;;;;;19.63;4.38;;;;;;;6.04;100.00;102396.22;10413819;28;20080;-67
2022/11/26 19:37:05;;;;;;;20.70;5.68;;;;;;;6.04;100.00;102410.91;10413255;28;20057;-66
2022/11/26 19:42:08;;;;;;;14.43;5.10;;;;;;;5.99;100.00;102412.59;10413026;28;20053;-66
2022/11/26 19:47:09;;;;;;;18.60;5.15;;;;;;;5.97;100.00;102404.81;10412869;28;20083;-66
2022/11/26 19:52:11;;;;;;;12.00;3.83;;;;;;;6.05;100.00;102402.25;10410783;28;20049;-65
2022/11/26 19:57:14;;;;;;;16.63;4.70;;;;;;;5.92;100.00;102397.03;10413283;28;20362;-64
2022/11/26 20:02:16;;;;;;;17.50;4.88;;;;;;;5.92;100.00;102415.16;10412288;28;20111;-71
2022/11/26 20:07:18;;;;;;;6.33;3.80;;;;;;;5.87;100.00;102429.84;10412251;28;20103;-67
2022/11/26 20:12:21;;;;;;;10.85;4.70;;;;;;;5.86;100.00;102443.66;10411730;28;20419;-67
2022/11/26 20:17:23;;;;;;;19.25;4.63;;;;;;;5.89;100.00;102459.22;10412067;28;20053;-69
2022/11/26 20:22:26;;;;;;;15.38;4.88;;;;;;;5.84;100.00;102455.75;10409185;28;20049;-68
2022/11/26 20:27:29;;;;;;;18.95;4.43;;;;;;;5.81;100.00;102450.53;10411789;28;20053;-65
2022/11/26 20:32:32;;;;;;;16.58;4.57;;;;;;;5.87;100.00;102450.56;10411380;28;20053;-66
2022/11/26 20:37:34;;;;;;;18.55;4.57;;;;;;;5.83;100.00;102447.97;10411306;28;20091;-66
2022/11/26 20:42:39;;;;;;;14.90;5.35;;;;;;;5.85;100.00;102452.28;10410867;28;20060;-65
2022/11/26 20:47:41;;;;;;;8.05;4.13;;;;;;;5.84;100.00;102445.38;10410709;28;20063;-67
2022/11/26 20:52:43;;;;;;;12.35;4.00;;;;;;;5.80;100.00;102434.16;10408375;28;20064;-68
2022/11/26 20:57:46;;;;;;;9.88;3.65;;;;;;;5.93;100.00;102440.22;10409999;28;20060;-67
2022/11/26 21:02:49;;;;;;;6.35;4.00;;;;;;;5.90;100.00;102441.94;10410747;28;20113;-68
2022/11/26 21:07:51;;;;;;;8.63;3.90;;;;;;;5.87;100.00;102440.22;10410305;28;20053;-65
2022/11/26 21:12:54;;;;;;;12.67;4.40;;;;;;;5.79;100.00;102421.19;10410016;28;20050;-67
2022/11/26 21:17:55;;;;;;;13.15;4.68;;;;;;;5.67;100.00;102412.53;10410421;28;20053;-67
2022/11/26 21:22:57;;;;;;;16.48;4.32;;;;;;;5.68;100.00;102405.59;10407560;28;20079;-65
2022/11/26 21:28:00;;;;;;;10.18;3.92;;;;;;;5.61;100.00;102388.31;10408574;28;20054;-67
2022/11/26 21:33:03;;;;;;;9.20;4.68;;;;;;;5.56;100.00;102366.69;10410880;28;20504;-67
2022/11/26 21:38:06;;;;;;;9.57;4.95;;;;;;;5.51;100.00;102353.75;10409605;28;20049;-66
2022/11/26 21:43:10;;;;;;;20.92;7.40;;;;;;;5.46;100.00;102356.31;10409588;28;20379;-66
2022/11/26 21:48:12;;;;;;;14.73;5.05;;;;;;;5.45;100.00;102353.72;10408851;28;20045;-66
2022/11/26 21:53:13;;;;;;;11.77;4.23;;;;;;;5.46;100.00;102333.03;10407765;28;20091;-67
2022/11/26 21:58:16;;;;;;;14.23;4.83;;;;;;;5.41;100.00;102333.00;10409921;28;20889;-66
2022/11/26 22:03:18;;;;;;;9.48;3.63;;;;;;;5.43;100.00;102321.81;10410624;28;20064;-66
2022/11/26 22:08:20;;;;;;;11.70;4.25;;;;;;;5.39;100.00;102329.56;10411594;28;20124;-68
2022/11/26 22:13:22;;;;;;;13.70;4.28;;;;;;;5.37;100.00;102300.19;10418337;28;20060;-68
2022/11/26 22:18:24;;;;;;;10.30;4.13;;;;;;;5.32;100.00;102295.84;10418304;28;20106;-67
2022/11/26 22:23:26;;;;;;;16.17;4.03;;;;;;;5.39;100.00;102267.41;10416388;28;20111;-69
2022/11/26 22:28:29;;;;;;;11.18;3.53;;;;;;;5.34;100.00;102258.75;10417920;28;20082;-66
2022/11/26 22:33:31;;;;;;;9.20;4.32;;;;;;;5.32;100.00;102259.63;10417802;28;20046;-68
2022/11/26 22:38:34;;;;;;;11.10;5.32;;;;;;;5.36;100.00;102253.59;10417270;28;20053;-66
2022/11/26 22:43:37;;;;;;;9.32;3.78;;;;;;;5.44;100.00;102245.84;10416921;28;20065;-69
2022/11/26 22:48:40;;;;;;;6.47;3.03;;;;;;;5.43;100.00;102242.38;10416892;28;20490;-67
2022/11/26 22:53:42;;;;;;;5.97;2.42;;;;;;;5.46;100.00;102236.34;10414322;28;20095;-72
2022/11/26 22:58:45;;;;;;;10.88;3.65;;;;;;;5.39;100.00;102235.47;10416713;28;20088;-67
2022/11/26 23:03:50;;;;;;;5.38;3.00;;;;;;;5.40;100.00;102243.25;10417042;28;20060;-67
2022/11/26 23:08:53;;;;;;;9.38;3.10;;;;;;;5.39;100.00;102238.94;10416695;28;20115;-67
2022/11/26 23:13:57;;;;;;;8.32;3.58;;;;;;;5.30;100.00;102235.47;10415972;28;20049;-69